createdAt,value
2022-10-11T00:01:28.504Z,71.90
2022-10-11T00:03:57.930Z,71.86
2022-10-11T00:06:26.496Z,71.89
2022-10-11T00:08:55.773Z,71.74
2022-10-11T00:11:24.693Z,71.91
2022-10-11T00:13:53.326Z,71.92
2022-10-11T00:16:24.033Z,71.88
2022-10-11T00:18:52.447Z,72.22
2022-10-11T00:21:21.958Z,72.00
2022-10-11T00:23:50.792Z,71.72
2022-10-11T00:26:20.054Z,71.84
2022-10-11T00:28:48.993Z,71.70
2022-10-11T00:31:17.523Z,71.41
2022-10-11T00:33:47.695Z,71.68
2022-10-11T00:36:17.450Z,71.64
2022-10-11T00:38:46.764Z,71.33
2022-10-11T00:41:17.552Z,71.90
2022-10-11T00:43:46.292Z,72.14
2022-10-11T00:46:34.412Z,72.35
2022-10-11T00:49:08.355Z,73.01
2022-10-11T00:51:49.340Z,73.17
2022-10-11T00:54:21.669Z,73.33
2022-10-11T00:56:55.072Z,73.45
2022-10-11T00:59:26.224Z,73.87
2022-10-11T01:01:55.720Z,73.16
2022-10-11T01:04:25.425Z,73.26
2022-10-11T01:06:54.977Z,73.56
2022-10-11T01:09:23.920Z,73.67
2022-10-11T01:11:57.641Z,73.60
2022-10-11T01:14:43.955Z,73.92
2022-10-11T01:17:24.323Z,73.91
2022-10-11T01:20:20.423Z,74.16
2022-10-11T01:23:29.506Z,73.99
2022-10-11T01:26:14.767Z,74.30
2022-10-11T01:28:52.313Z,74.92
2022-10-11T01:31:27.462Z,74.78
2022-10-11T01:34:01.104Z,74.79
2022-10-11T01:36:35.595Z,74.86
2022-10-11T01:39:07.751Z,75.14
2022-10-11T01:41:41.495Z,75.23
2022-10-11T01:44:12.407Z,75.14
2022-10-11T01:46:42.323Z,75.55
2022-10-11T01:49:11.761Z,75.68
2022-10-11T01:51:47.020Z,75.57
2022-10-11T01:54:56.476Z,75.66
2022-10-11T01:57:45.422Z,75.40
2022-10-11T02:00:17.702Z,75.71
2022-10-11T02:03:02.316Z,75.75
2022-10-11T02:05:38.884Z,76.13
2022-10-11T02:08:17.052Z,76.32
2022-10-11T02:10:51.431Z,76.44
2022-10-11T02:13:27.750Z,76.78
2022-10-11T02:15:59.987Z,76.97
2022-10-11T02:18:37.572Z,77.22
2022-10-11T02:21:09.706Z,77.64
2022-10-11T02:23:43.507Z,77.79
2022-10-11T02:26:13.582Z,77.62
2022-10-11T02:28:45.071Z,77.49
2022-10-11T02:31:16.572Z,77.68
2022-10-11T02:33:51.758Z,77.62
2022-10-11T02:36:27.603Z,77.78
2022-10-11T02:39:01.300Z,77.80
2022-10-11T02:41:35.224Z,77.93
2022-10-11T02:44:08.337Z,78.05
2022-10-11T02:46:38.320Z,77.97
2022-10-11T02:49:09.847Z,77.43
2022-10-11T02:51:38.575Z,77.15
2022-10-11T02:54:08.045Z,77.09
2022-10-11T02:56:36.479Z,77.03
2022-10-11T02:59:05.399Z,77.34
2022-10-11T03:01:33.873Z,77.33
2022-10-11T03:04:03.078Z,77.18
2022-10-11T03:06:32.819Z,77.24
2022-10-11T03:09:01.990Z,77.13
2022-10-11T03:11:30.393Z,77.30
2022-10-11T03:13:59.340Z,76.98
2022-10-11T03:16:27.736Z,76.95
2022-10-11T03:18:57.098Z,76.85
2022-10-11T03:21:26.218Z,76.99
2022-10-11T03:23:56.019Z,76.84
2022-10-11T03:26:24.991Z,77.14
2022-10-11T03:28:53.391Z,77.13
2022-10-11T03:31:24.182Z,76.93
2022-10-11T03:33:53.066Z,77.14
2022-10-11T03:36:21.433Z,76.75
2022-10-11T03:38:50.796Z,76.96
2022-10-11T03:41:20.566Z,76.75
2022-10-11T03:43:49.724Z,77.10
2022-10-11T03:46:18.284Z,76.68
2022-10-11T03:48:47.067Z,76.75
2022-10-11T03:51:16.034Z,76.74
2022-10-11T03:53:45.379Z,76.84
2022-10-11T03:56:15.371Z,76.97
2022-10-11T03:58:46.615Z,77.00
2022-10-11T04:01:15.514Z,76.69
2022-10-11T04:03:44.436Z,76.29
2022-10-11T04:06:12.894Z,76.42
2022-10-11T04:08:41.700Z,76.33
2022-10-11T04:11:10.297Z,76.42
2022-10-11T04:13:39.193Z,76.29
2022-10-11T04:16:09.233Z,76.59
2022-10-11T04:18:38.248Z,76.85
2022-10-11T04:21:07.133Z,76.72
2022-10-11T04:23:36.376Z,76.77
2022-10-11T04:26:07.065Z,77.05
2022-10-11T04:28:37.275Z,77.11
2022-10-11T04:31:07.777Z,76.72
2022-10-11T04:33:38.338Z,76.76
2022-10-11T04:36:08.376Z,76.32
2022-10-11T04:38:37.104Z,76.32
2022-10-11T04:41:10.010Z,76.73
2022-10-11T04:43:38.467Z,76.96
2022-10-11T04:46:08.781Z,76.76
2022-10-11T04:48:38.982Z,76.61
2022-10-11T04:51:08.480Z,76.55
2022-10-11T04:53:37.275Z,76.25
2022-10-11T04:56:11.689Z,76.20
2022-10-11T04:58:42.124Z,76.35
2022-10-11T05:01:11.485Z,76.65
2022-10-11T05:03:41.670Z,76.58
2022-10-11T05:06:10.820Z,76.71
2022-10-11T05:08:39.982Z,76.49
2022-10-11T05:11:15.669Z,76.69
2022-10-11T05:13:45.792Z,76.77
2022-10-11T05:16:16.603Z,76.93
2022-10-11T05:18:47.878Z,76.73
2022-10-11T05:21:19.007Z,77.04
2022-10-11T05:23:50.264Z,76.94
2022-10-11T05:26:20.076Z,77.18
2022-10-11T05:28:48.515Z,77.06
2022-10-11T05:31:18.482Z,77.33
2022-10-11T05:33:48.327Z,77.30
2022-10-11T05:36:17.426Z,77.23
2022-10-11T05:38:46.489Z,77.19
2022-10-11T05:41:16.421Z,77.14
2022-10-11T05:43:45.877Z,77.41
2022-10-11T05:46:14.689Z,77.25
2022-10-11T05:48:43.083Z,77.33
2022-10-11T05:51:13.597Z,77.33
2022-10-11T05:53:42.059Z,77.50
2022-10-11T05:56:20.382Z,77.56
2022-10-11T05:58:49.164Z,77.47
2022-10-11T06:01:19.762Z,77.14
2022-10-11T06:03:48.832Z,77.31
2022-10-11T06:06:19.632Z,77.24
2022-10-11T06:08:48.674Z,77.07
2022-10-11T06:11:18.727Z,76.86
2022-10-11T06:13:47.191Z,77.21
2022-10-11T06:16:16.425Z,77.10
2022-10-11T06:18:44.884Z,76.98
2022-10-11T06:21:15.878Z,77.08
2022-10-11T06:23:49.582Z,77.39
2022-10-11T06:26:18.788Z,77.27
2022-10-11T06:28:47.371Z,77.15
2022-10-11T06:31:16.261Z,77.45
2022-10-11T06:33:44.649Z,77.56
2022-10-11T06:36:15.423Z,77.47
2022-10-11T06:38:45.745Z,77.37
2022-10-11T06:41:17.162Z,77.13
2022-10-11T06:43:45.780Z,77.28
2022-10-11T06:46:14.605Z,77.36
2022-10-11T06:48:44.319Z,77.01
2022-10-11T06:51:13.471Z,77.05
2022-10-11T06:53:42.932Z,76.98
2022-10-11T06:56:13.751Z,76.97
2022-10-11T06:58:42.375Z,76.92
2022-10-11T07:01:13.958Z,77.05
2022-10-11T07:03:43.017Z,77.00
2022-10-11T07:06:14.540Z,77.12
2022-10-11T07:08:43.411Z,77.10
2022-10-11T07:11:15.028Z,77.03
2022-10-11T07:13:44.132Z,77.05
2022-10-11T07:16:13.798Z,77.35
2022-10-11T07:18:42.394Z,77.32
2022-10-11T07:21:15.094Z,77.18
2022-10-11T07:23:44.265Z,77.51
2022-10-11T07:26:14.872Z,77.24
2022-10-11T07:28:43.526Z,77.23
2022-10-11T07:31:14.611Z,77.29
2022-10-11T07:33:43.040Z,77.13
2022-10-11T07:36:12.035Z,77.19
2022-10-11T07:38:42.077Z,77.33
2022-10-11T07:41:11.095Z,77.22
2022-10-11T07:43:43.299Z,77.26
2022-10-11T07:46:12.317Z,77.00
2022-10-11T07:48:41.629Z,76.90
2022-10-11T07:51:12.216Z,76.90
2022-10-11T07:53:42.543Z,76.95
2022-10-11T07:56:12.877Z,77.05
2022-10-11T07:58:43.891Z,76.95
2022-10-11T08:01:14.563Z,76.96
2022-10-11T08:03:43.099Z,76.99
2022-10-11T08:06:15.609Z,76.94
2022-10-11T08:08:44.601Z,76.81
2022-10-11T08:11:21.534Z,76.77
2022-10-11T08:13:52.091Z,76.74
2022-10-11T08:16:28.416Z,76.66
2022-10-11T08:18:57.353Z,76.30
2022-10-11T08:21:26.919Z,76.61
2022-10-11T08:23:55.398Z,76.53
2022-10-11T08:26:24.233Z,76.19
2022-10-11T08:28:54.132Z,76.06
2022-10-11T08:31:23.026Z,75.96
2022-10-11T08:33:51.584Z,75.64
2022-10-11T08:36:20.404Z,75.73
2022-10-11T08:38:48.814Z,75.71
2022-10-11T08:41:28.792Z,75.31
2022-10-11T08:44:09.837Z,75.22
2022-10-11T08:46:40.390Z,75.33
2022-10-11T08:49:09.748Z,75.22
2022-10-11T08:51:43.412Z,74.68
2022-10-11T08:54:18.583Z,74.51
2022-10-11T08:56:48.172Z,74.30
2022-10-11T08:59:30.574Z,74.03
2022-10-11T09:02:05.404Z,73.80
2022-10-11T09:04:34.958Z,73.44
2022-10-11T09:07:10.371Z,73.20
2022-10-11T09:10:04.996Z,73.39
2022-10-11T09:12:47.072Z,73.00
2022-10-11T09:15:25.992Z,72.62
2022-10-11T09:18:18.314Z,72.69
2022-10-11T09:20:58.218Z,72.32
2022-10-11T09:23:44.340Z,72.34
2022-10-11T09:26:18.530Z,72.17
2022-10-11T09:29:00.877Z,71.73
2022-10-11T09:31:31.517Z,71.12
2022-10-11T09:34:07.775Z,69.90
2022-10-11T09:36:42.758Z,69.11
2022-10-11T09:39:26.178Z,67.87
2022-10-11T09:41:59.936Z,66.74
2022-10-11T09:44:30.480Z,66.58
2022-10-11T09:47:00.503Z,66.25
2022-10-11T09:49:32.937Z,65.89
2022-10-11T09:52:04.068Z,65.64
2022-10-11T09:54:40.303Z,65.44
2022-10-11T09:57:20.774Z,64.80
2022-10-11T10:00:01.103Z,65.11
2022-10-11T10:02:44.292Z,65.34
2022-10-11T10:05:21.658Z,64.89
2022-10-11T10:08:05.102Z,64.91
2022-10-11T10:10:42.287Z,64.81
2022-10-11T10:13:22.119Z,64.82
2022-10-11T10:15:53.987Z,65.00
2022-10-11T10:18:26.710Z,64.99
2022-10-11T10:20:59.473Z,64.67
2022-10-11T10:23:30.338Z,64.68
2022-10-11T10:26:17.885Z,64.72
2022-10-11T10:28:58.385Z,64.99
2022-10-11T10:31:40.298Z,64.62
2022-10-11T10:34:27.434Z,64.91
2022-10-11T10:37:00.359Z,64.27
2022-10-11T10:39:32.859Z,63.89
2022-10-11T10:42:04.951Z,63.71
2022-10-11T10:44:33.310Z,63.19
2022-10-11T10:47:11.525Z,63.61
2022-10-11T10:49:54.400Z,63.14
2022-10-11T10:52:49.872Z,63.37
2022-10-11T10:55:30.182Z,62.89
2022-10-11T10:58:24.504Z,62.31
2022-10-11T11:00:57.433Z,62.02
2022-10-11T11:03:37.260Z,61.97
2022-10-11T11:06:09.862Z,61.63
2022-10-11T11:08:58.926Z,61.21
2022-10-11T11:11:40.057Z,60.57
2022-10-11T11:14:21.603Z,60.63
2022-10-11T11:16:57.930Z,60.30
2022-10-11T11:19:40.408Z,59.88
2022-10-11T11:22:32.923Z,59.04
2022-10-11T11:25:14.784Z,58.64
2022-10-11T11:27:57.915Z,58.94
2022-10-11T11:30:36.220Z,58.18
2022-10-11T11:33:17.100Z,58.15
2022-10-11T11:35:50.014Z,57.91
2022-10-11T11:38:27.237Z,57.85
2022-10-11T11:41:02.091Z,57.53
2022-10-11T11:43:37.675Z,57.20
2022-10-11T11:46:13.227Z,56.93
2022-10-11T11:48:42.312Z,56.68
2022-10-11T11:51:15.518Z,56.65
2022-10-11T11:53:59.129Z,56.26
2022-10-11T11:56:31.356Z,56.23
2022-10-11T11:59:07.519Z,56.35
2022-10-11T12:01:41.343Z,56.63
2022-10-11T12:04:19.415Z,56.87
2022-10-11T12:07:15.337Z,57.34
2022-10-11T12:09:50.464Z,57.49
2022-10-11T12:12:31.803Z,57.50
2022-10-11T12:15:17.143Z,57.86
2022-10-11T12:18:05.219Z,57.85
2022-10-11T12:20:37.716Z,58.01
2022-10-11T12:23:43.376Z,58.50
2022-10-11T12:26:37.847Z,58.70
2022-10-11T12:29:28.766Z,58.15
2022-10-11T12:32:52.528Z,58.29
2022-10-11T12:35:52.908Z,58.69
2022-10-11T12:38:23.502Z,58.66
2022-10-11T12:40:54.673Z,58.87
2022-10-11T12:43:36.084Z,58.70
2022-10-11T12:46:53.819Z,58.47
2022-10-11T12:49:47.387Z,58.23
2022-10-11T12:52:27.906Z,57.55
2022-10-11T12:55:14.345Z,57.41
2022-10-11T12:58:25.304Z,57.00
2022-10-11T13:01:16.649Z,56.86
2022-10-11T13:03:47.579Z,57.30
2022-10-11T13:06:19.897Z,57.08
2022-10-11T13:08:54.925Z,56.87
2022-10-11T13:11:28.939Z,56.76
2022-10-11T13:13:59.334Z,56.59
2022-10-11T13:16:42.709Z,56.66
2022-10-11T13:19:15.067Z,56.32
2022-10-11T13:21:44.042Z,56.28
2022-10-11T13:24:16.842Z,56.22
2022-10-11T13:26:49.020Z,56.23
2022-10-11T13:29:20.751Z,56.34
2022-10-11T13:31:50.729Z,56.75
2022-10-11T13:34:23.331Z,56.13
2022-10-11T13:36:56.896Z,56.19
2022-10-11T13:39:31.547Z,56.34
2022-10-11T13:42:01.486Z,56.50
2022-10-11T13:44:33.568Z,56.16
2022-10-11T13:47:04.763Z,56.34
2022-10-11T13:49:39.144Z,56.12
2022-10-11T13:52:21.656Z,56.09
2022-10-11T13:55:00.276Z,56.38
2022-10-11T13:57:35.821Z,55.82
2022-10-11T14:00:10.512Z,55.97
2022-10-11T14:02:47.983Z,55.86
2022-10-11T14:05:24.542Z,56.25
2022-10-11T14:07:53.345Z,56.13
2022-10-11T14:10:23.466Z,56.27
2022-10-11T14:13:07.764Z,56.68
2022-10-11T14:15:38.123Z,56.75
2022-10-11T14:18:38.289Z,57.32
2022-10-11T14:21:25.930Z,57.17
2022-10-11T14:23:56.739Z,57.29
2022-10-11T14:26:26.331Z,56.95
2022-10-11T14:28:59.667Z,56.47
2022-10-11T14:31:31.088Z,56.34
2022-10-11T14:34:00.949Z,56.28
2022-10-11T14:36:29.707Z,56.50
2022-10-11T14:38:58.070Z,56.38
2022-10-11T14:41:27.314Z,56.46
2022-10-11T14:43:56.864Z,57.00
2022-10-11T14:46:27.228Z,57.17
2022-10-11T14:48:56.700Z,57.82
2022-10-11T14:51:33.644Z,58.02
2022-10-11T14:54:02.005Z,58.33
2022-10-11T14:56:30.932Z,58.63
2022-10-11T14:58:59.392Z,59.33
2022-10-11T15:01:27.817Z,59.05
2022-10-11T15:03:56.692Z,59.30
2022-10-11T15:06:30.750Z,59.60
2022-10-11T15:08:59.136Z,59.71
2022-10-11T15:11:27.754Z,59.89
2022-10-11T15:13:56.107Z,60.04
2022-10-11T15:16:25.837Z,60.09
2022-10-11T15:18:54.231Z,59.93
2022-10-11T15:21:25.046Z,59.91
2022-10-11T15:23:56.793Z,59.70
2022-10-11T15:26:26.867Z,59.56
2022-10-11T15:28:57.657Z,59.65
2022-10-11T15:31:26.510Z,59.41
2022-10-11T15:33:59.315Z,59.50
2022-10-11T15:36:29.124Z,59.01
2022-10-11T15:38:58.816Z,59.17
2022-10-11T15:41:27.938Z,58.85
2022-10-11T15:43:56.456Z,58.82
2022-10-11T15:46:25.018Z,59.07
2022-10-11T15:48:53.475Z,58.98
2022-10-11T15:51:22.947Z,59.18
2022-10-11T15:53:51.658Z,58.82
2022-10-11T15:56:21.823Z,59.06
2022-10-11T15:58:50.153Z,59.20
2022-10-11T16:01:21.915Z,59.55
2022-10-11T16:03:51.652Z,59.29
2022-10-11T16:06:20.362Z,59.65
2022-10-11T16:08:48.776Z,60.11
2022-10-11T16:11:17.997Z,60.04
2022-10-11T16:13:47.720Z,60.52
2022-10-11T16:16:16.591Z,60.44
2022-10-11T16:18:44.968Z,60.77
2022-10-11T16:21:16.050Z,61.04
2022-10-11T16:23:44.733Z,61.06
2022-10-11T16:26:16.353Z,61.42
2022-10-11T16:28:45.155Z,61.46
2022-10-11T16:31:21.371Z,61.79
2022-10-11T16:33:50.367Z,62.04
2022-10-11T16:36:36.452Z,62.09
2022-10-11T16:39:09.707Z,62.41
2022-10-11T16:41:38.808Z,62.29
2022-10-11T16:44:07.916Z,62.70
2022-10-11T16:46:37.610Z,62.90
2022-10-11T16:49:07.114Z,63.10
2022-10-11T16:51:35.548Z,63.22
2022-10-11T16:54:04.078Z,63.20
2022-10-11T16:56:37.403Z,63.43
2022-10-11T16:59:08.331Z,63.47
2022-10-11T17:01:39.195Z,63.62
2022-10-11T17:04:08.002Z,63.83
2022-10-11T17:06:36.879Z,63.86
2022-10-11T17:09:05.863Z,63.82
2022-10-11T17:11:34.294Z,64.13
2022-10-11T17:14:03.548Z,64.27
2022-10-11T17:16:31.919Z,64.34
2022-10-11T17:19:02.583Z,64.37
2022-10-11T17:21:31.311Z,64.58
2022-10-11T17:24:00.025Z,64.73
2022-10-11T17:26:28.865Z,64.95
2022-10-11T17:28:59.143Z,65.04
2022-10-11T17:31:28.666Z,65.25
2022-10-11T17:33:59.835Z,65.36
2022-10-11T17:36:31.975Z,65.30
2022-10-11T17:39:02.320Z,65.44
2022-10-11T17:41:32.274Z,65.62
2022-10-11T17:44:02.830Z,65.43
2022-10-11T17:46:32.917Z,65.50
2022-10-11T17:49:04.710Z,65.55
2022-10-11T17:51:35.711Z,65.52
2022-10-11T17:54:06.112Z,65.54
2022-10-11T17:56:38.056Z,65.77
2022-10-11T17:59:07.311Z,65.75
2022-10-11T18:01:36.092Z,65.70
2022-10-11T18:04:06.368Z,65.67
2022-10-11T18:06:41.103Z,65.78
2022-10-11T18:09:09.661Z,65.90
2022-10-11T18:11:38.398Z,66.08
2022-10-11T18:14:07.001Z,66.19
2022-10-11T18:16:36.419Z,66.33
2022-10-11T18:19:06.380Z,66.29
2022-10-11T18:21:37.674Z,66.26
2022-10-11T18:24:11.191Z,66.33
2022-10-11T18:26:39.920Z,66.33
2022-10-11T18:29:09.237Z,66.54
2022-10-11T18:31:37.576Z,66.43
2022-10-11T18:34:10.736Z,66.59
2022-10-11T18:36:40.652Z,66.73
2022-10-11T18:39:13.879Z,66.87
2022-10-11T18:41:44.563Z,66.82
2022-10-11T18:44:15.855Z,66.91
2022-10-11T18:46:44.851Z,66.73
2022-10-11T18:49:14.523Z,66.74
2022-10-11T18:51:46.472Z,66.69
2022-10-11T18:54:20.065Z,66.68
2022-10-11T18:56:49.978Z,66.58
2022-10-11T18:59:20.010Z,66.83
2022-10-11T19:01:52.077Z,66.90
2022-10-11T19:04:21.597Z,67.08
2022-10-11T19:06:53.219Z,67.18
2022-10-11T19:09:23.326Z,67.28
2022-10-11T19:11:53.292Z,67.33
2022-10-11T19:14:25.515Z,67.65
2022-10-11T19:16:54.769Z,67.52
2022-10-11T19:19:25.182Z,67.60
2022-10-11T19:21:54.979Z,67.68
2022-10-11T19:24:26.578Z,67.63
2022-10-11T19:27:02.038Z,67.65
2022-10-11T19:29:31.654Z,67.62
2022-10-11T19:32:02.952Z,67.72
2022-10-11T19:34:32.736Z,67.85
2022-10-11T19:37:03.741Z,67.79
2022-10-11T19:39:32.422Z,67.76
2022-10-11T19:42:02.098Z,67.89
2022-10-11T19:44:32.527Z,67.78
2022-10-11T19:47:05.532Z,67.99
2022-10-11T19:49:34.258Z,67.91
2022-10-11T19:52:04.421Z,68.27
2022-10-11T19:54:33.000Z,68.08
2022-10-11T19:57:02.158Z,67.86
2022-10-11T19:59:30.511Z,68.03
2022-10-11T20:01:59.774Z,67.95
2022-10-11T20:07:19.304Z,68.16
2022-10-11T20:09:48.113Z,68.30
2022-10-11T20:12:17.179Z,68.33
2022-10-11T20:14:45.561Z,67.91
2022-10-11T20:17:13.907Z,67.91
2022-10-11T20:19:42.216Z,68.24
2022-10-11T20:22:11.008Z,68.30
2022-10-11T20:24:40.760Z,68.38
2022-10-11T20:27:10.038Z,68.37
2022-10-11T20:29:38.364Z,68.53
2022-10-11T20:32:07.055Z,68.79
2022-10-11T20:34:39.660Z,68.52
2022-10-11T20:37:08.360Z,68.66
2022-10-11T20:39:36.730Z,68.72
2022-10-11T20:42:06.554Z,69.12
2022-10-11T20:44:35.230Z,68.69
2022-10-11T20:47:04.438Z,69.07
2022-10-11T20:49:32.883Z,68.67
2022-10-11T20:52:01.254Z,68.87
2022-10-11T20:54:30.766Z,68.70
2022-10-11T20:56:59.189Z,68.76
2022-10-11T20:59:29.544Z,68.70
2022-10-11T21:01:58.299Z,68.81
2022-10-11T21:04:26.695Z,68.76
2022-10-11T21:06:55.590Z,69.10
2022-10-11T21:09:24.061Z,69.25
2022-10-11T21:11:53.031Z,68.88
2022-10-11T21:14:22.181Z,69.29
2022-10-11T21:16:51.856Z,69.26
2022-10-11T21:19:20.539Z,68.97
2022-10-11T21:21:53.513Z,69.29
2022-10-11T21:24:23.037Z,69.37
2022-10-11T21:26:51.449Z,69.40
2022-10-11T21:29:20.765Z,69.44
2022-10-11T21:31:51.003Z,69.57
2022-10-11T21:34:19.779Z,69.56
2022-10-11T21:36:48.153Z,69.71
2022-10-11T21:39:17.487Z,69.99
2022-10-11T21:41:45.863Z,69.68
2022-10-11T21:44:14.508Z,69.83
2022-10-11T21:49:33.685Z,69.98
2022-10-11T21:52:02.768Z,69.87
2022-10-11T21:54:31.706Z,70.01
2022-10-11T21:57:00.422Z,69.78
2022-10-11T21:59:28.860Z,69.90
2022-10-11T22:02:01.612Z,70.05
2022-10-11T22:04:31.345Z,70.07
2022-10-11T22:07:01.359Z,70.49
2022-10-11T22:09:34.870Z,70.52
2022-10-11T22:12:03.924Z,70.35
2022-10-11T22:14:33.396Z,70.56
2022-10-11T22:17:01.790Z,70.57
2022-10-11T22:19:31.232Z,70.74
2022-10-11T22:22:00.995Z,70.57
2022-10-11T22:24:29.819Z,70.64
2022-10-11T22:26:59.326Z,70.88
2022-10-11T22:29:33.213Z,71.02
2022-10-11T22:32:03.286Z,71.11
2022-10-11T22:34:32.459Z,71.09
2022-10-11T22:37:02.829Z,71.01
2022-10-11T22:39:31.332Z,71.14
2022-10-11T22:42:00.364Z,71.07
2022-10-11T22:44:28.890Z,71.17
2022-10-11T22:46:57.579Z,71.36
2022-10-11T22:49:26.040Z,71.09
2022-10-11T22:51:54.391Z,71.16
2022-10-11T22:54:24.786Z,71.25
2022-10-11T22:56:53.182Z,71.22
2022-10-11T22:59:22.356Z,71.25
2022-10-11T23:01:50.757Z,71.18
2022-10-11T23:04:19.709Z,71.11
2022-10-11T23:06:48.508Z,71.05
2022-10-11T23:09:16.941Z,71.16
2022-10-11T23:11:46.999Z,71.25
2022-10-11T23:14:15.516Z,71.39
2022-10-11T23:16:44.656Z,71.37
2022-10-11T23:19:13.556Z,71.29
2022-10-11T23:21:42.313Z,71.44
2022-10-11T23:24:11.753Z,71.70
2022-10-11T23:26:40.936Z,71.49
2022-10-11T23:29:10.721Z,71.80
2022-10-11T23:31:39.111Z,71.44
2022-10-11T23:34:08.279Z,71.44
2022-10-11T23:36:36.650Z,71.67
2022-10-11T23:39:05.660Z,71.64
2022-10-11T23:41:34.896Z,71.74
2022-10-11T23:44:03.251Z,71.33
2022-10-11T23:46:33.009Z,71.59
2022-10-11T23:49:01.821Z,71.64
2022-10-11T23:51:30.636Z,71.45
2022-10-11T23:53:59.135Z,71.57
2022-10-11T23:56:27.647Z,71.69
2022-10-11T23:58:56.055Z,71.47
